^^
Saratoga-Weather Station Historical Data
Daily Summary for December 29, 2021 Units:  Both    English   Metric
Daily Weekly Monthly Yearly Custom
  High: Low: Average:
Temperature: 56.7 °F /  13.7 °C 46.2 °F /  7.9 °C 49.6 °F /  9.8 °C
Dew Point: 54.9 °F /  12.7 °C 44.6 °F /  7 °C 47.8 °F /  8.8 °C
Humidity: 96% 88% 93%
Wind Speed: 18mph /  29km/h - 3.7mph /  6km/h
Wind Gust: 20mph /  32.2km/h - -
Wind- - WSW
Pressure: 29.9 in /  1013.2 hPa 29.6 in /  1002.7 hPa -
Precipitation: 0.16 in /  4.1 mm    
Historical Graphs
 
 
Tabular Data for December 29, 2021
Time Temperature Dew Point Pressure Wind Wind Speed Wind Gust Humidity Rainfall Rate (Hourly) solar
00:00 47.8 °F /  8.8 °C 45.3 °F /  7.4 °C 29.6in /  1002.7hPa West 10.1mph /  16.3km/h 17mph /  27.4km/h 91% 0in /  0.0mm 0 W/m2
00:05 48 °F /  8.9 °C 45.5 °F /  7.5 °C 29.6in /  1003.0hPa West 10.1mph /  16.3km/h 16mph /  25.7km/h 91% 0in /  0.0mm 0 W/m2
00:10 48 °F /  8.9 °C 45.5 °F /  7.5 °C 29.6in /  1003.0hPa SW 2mph /  3.2km/h 18mph /  29km/h 91% 0in /  0.0mm 0 W/m2
00:15 48 °F /  8.9 °C 45.5 °F /  7.5 °C 29.6in /  1003.0hPa WSW 6.9mph /  11.1km/h 12mph /  19.3km/h 91% 0in /  0.0mm 0 W/m2
00:20 47.8 °F /  8.8 °C 45.3 °F /  7.4 °C 29.6in /  1003.0hPa West 6.9mph /  11.1km/h 15mph /  24.1km/h 91% 0in /  0.0mm 0 W/m2
00:25 48 °F /  8.9 °C 45.1 °F /  7.3 °C 29.6in /  1003.0hPa WSW 8.9mph /  14.3km/h 17mph /  27.4km/h 90% 0in /  0.0mm 0 W/m2
00:30 48 °F /  8.9 °C 45.1 °F /  7.3 °C 29.6in /  1003.4hPa NNW 12.1mph /  19.5km/h 13mph /  20.9km/h 90% 0in /  0.0mm 0 W/m2
00:35 48.2 °F /  9 °C 45.3 °F /  7.4 °C 29.6in /  1003.4hPa SW 10.1mph /  16.3km/h 14mph /  22.5km/h 90% 0in /  0.0mm 0 W/m2
00:40 48.2 °F /  9 °C 45.3 °F /  7.4 °C 29.6in /  1003.4hPa NW 4mph /  6.4km/h 12mph /  19.3km/h 90% 0in /  0.0mm 0 W/m2
00:45 48.2 °F /  9 °C 45.3 °F /  7.4 °C 29.6in /  1003.4hPa West 6.9mph /  11.1km/h 14mph /  22.5km/h 90% 0in /  0.0mm 0 W/m2
00:50 48.4 °F /  9.1 °C 45.3 °F /  7.4 °C 29.6in /  1003.7hPa WNW 10.1mph /  16.3km/h 13mph /  20.9km/h 89% 0in /  0.0mm 0 W/m2
00:55 48.4 °F /  9.1 °C 45.3 °F /  7.4 °C 29.6in /  1003.7hPa West 6.9mph /  11.1km/h 15mph /  24.1km/h 89% 0in /  0.0mm 0 W/m2
01:01 48.4 °F /  9.1 °C 45.3 °F /  7.4 °C 29.7in /  1004.1hPa West 8.1mph /  13km/h 10mph /  16.1km/h 89% 0in /  0.0mm 0 W/m2
01:06 48.6 °F /  9.2 °C 45.1 °F /  7.3 °C 29.7in /  1004.1hPa WSW 4.9mph /  7.9km/h 11mph /  17.7km/h 88% 0in /  0.0mm 0 W/m2
01:11 48.6 °F /  9.2 °C 45.1 °F /  7.3 °C 29.7in /  1004.1hPa West 8.1mph /  13km/h 9mph /  14.5km/h 88% 0in /  0.0mm 0 W/m2
01:16 48.6 °F /  9.2 °C 45.1 °F /  7.3 °C 29.7in /  1004.1hPa West 10.1mph /  16.3km/h 10mph /  16.1km/h 88% 0in /  0.0mm 0 W/m2
01:21 48.6 °F /  9.2 °C 45.1 °F /  7.3 °C 29.7in /  1004.4hPa WNW 10.1mph /  16.3km/h 10mph /  16.1km/h 88% 0in /  0.0mm 0 W/m2
01:26 48.6 °F /  9.2 °C 45.1 °F /  7.3 °C 29.7in /  1004.4hPa WNW 2.9mph /  4.7km/h 10mph /  16.1km/h 88% 0in /  0.0mm 0 W/m2
01:31 48.6 °F /  9.2 °C 45.1 °F /  7.3 °C 29.7in /  1004.4hPa West 8.9mph /  14.3km/h 14mph /  22.5km/h 88% 0in /  0.0mm 0 W/m2
01:36 48.6 °F /  9.2 °C 45.5 °F /  7.5 °C 29.7in /  1004.4hPa West 14.1mph /  22.7km/h 17mph /  27.4km/h 89% 0in /  0.0mm 0 W/m2
01:41 48.6 °F /  9.2 °C 45.5 °F /  7.5 °C 29.7in /  1004.4hPa West 6mph /  9.7km/h 12mph /  19.3km/h 89% 0in /  0.0mm 0 W/m2
01:46 48.6 °F /  9.2 °C 45.5 °F /  7.5 °C 29.7in /  1004.7hPa WSW 8.1mph /  13km/h 12mph /  19.3km/h 89% 0in /  0.0mm 0 W/m2
01:51 48.6 °F /  9.2 °C 45.5 °F /  7.5 °C 29.7in /  1004.7hPa NW 2.9mph /  4.7km/h 11mph /  17.7km/h 89% 0in /  0.0mm 0 W/m2
01:56 48.6 °F /  9.2 °C 45.5 °F /  7.5 °C 29.7in /  1004.7hPa West 6.9mph /  11.1km/h 10mph /  16.1km/h 89% 0in /  0.0mm 0 W/m2
02:01 48.6 °F /  9.2 °C 45.5 °F /  7.5 °C 29.7in /  1004.7hPa WSW 8.1mph /  13km/h 10mph /  16.1km/h 89% 0in /  0.0mm 0 W/m2
02:06 48.6 °F /  9.2 °C 45.5 °F /  7.5 °C 29.7in /  1005.1hPa WSW 4.9mph /  7.9km/h 10mph /  16.1km/h 89% 0in /  0.0mm 0 W/m2
02:11 48.6 °F /  9.2 °C 45.5 °F /  7.5 °C 29.7in /  1005.1hPa NW 4mph /  6.4km/h 9mph /  14.5km/h 89% 0in /  0.0mm 0 W/m2
02:16 48.4 °F /  9.1 °C 45.3 °F /  7.4 °C 29.7in /  1005.4hPa WNW 4.9mph /  7.9km/h 10mph /  16.1km/h 89% 0in /  0.0mm 0 W/m2
02:21 48.4 °F /  9.1 °C 45.3 °F /  7.4 °C 29.7in /  1005.8hPa NNE 4mph /  6.4km/h 7mph /  11.3km/h 89% 0in /  0.0mm 0 W/m2
02:26 48.4 °F /  9.1 °C 45.3 °F /  7.4 °C 29.7in /  1005.8hPa WNW 10.1mph /  16.3km/h 13mph /  20.9km/h 89% 0in /  0.0mm 0 W/m2
02:31 48.6 °F /  9.2 °C 45.5 °F /  7.5 °C 29.7in /  1005.8hPa WNW 8.9mph /  14.3km/h 12mph /  19.3km/h 89% 0in /  0.0mm 0 W/m2
02:36 48.6 °F /  9.2 °C 45.5 °F /  7.5 °C 29.7in /  1006.1hPa West 4mph /  6.4km/h 10mph /  16.1km/h 89% 0in /  0.0mm 0 W/m2
02:41 48.6 °F /  9.2 °C 45.5 °F /  7.5 °C 29.7in /  1006.1hPa WNW 2mph /  3.2km/h 10mph /  16.1km/h 89% 0in /  0.0mm 0 W/m2
02:46 48.4 °F /  9.1 °C 45.3 °F /  7.4 °C 29.7in /  1006.1hPa NW 8.1mph /  13km/h 12mph /  19.3km/h 89% 0in /  0.0mm 0 W/m2
02:51 48.2 °F /  9 °C 45.1 °F /  7.3 °C 29.7in /  1006.1hPa WNW 8.9mph /  14.3km/h 14mph /  22.5km/h 89% 0in /  0.0mm 0 W/m2
02:56 48.2 °F /  9 °C 45.1 °F /  7.3 °C 29.7in /  1006.1hPa WNW 8.1mph /  13km/h 15mph /  24.1km/h 89% 0in /  0.0mm 0 W/m2
03:01 48.2 °F /  9 °C 45.1 °F /  7.3 °C 29.7in /  1006.4hPa WSW 4.9mph /  7.9km/h 10mph /  16.1km/h 89% 0in /  0.0mm 0 W/m2
03:06 48.2 °F /  9 °C 45.1 °F /  7.3 °C 29.7in /  1006.1hPa West 2.9mph /  4.7km/h 15mph /  24.1km/h 89% 0in /  0.0mm 0 W/m2
03:11 48 °F /  8.9 °C 45 °F /  7.2 °C 29.7in /  1006.4hPa West 6mph /  9.7km/h 6mph /  9.7km/h 89% 0in /  0.0mm 0 W/m2
03:16 48.2 °F /  9 °C 45.1 °F /  7.3 °C 29.7in /  1006.4hPa WNW 8.1mph /  13km/h 11mph /  17.7km/h 89% 0in /  0.0mm 0 W/m2
03:21 48.4 °F /  9.1 °C 45.3 °F /  7.4 °C 29.7in /  1006.4hPa WSW 0.9mph /  1.4km/h 10mph /  16.1km/h 89% 0in /  0.0mm 0 W/m2
03:26 48.4 °F /  9.1 °C 45.3 °F /  7.4 °C 29.7in /  1006.4hPa West 2mph /  3.2km/h 9mph /  14.5km/h 89% 0in /  0.0mm 0 W/m2
03:31 48.2 °F /  9 °C 45.3 °F /  7.4 °C 29.7in /  1006.4hPa WNW 2mph /  3.2km/h 4mph /  6.4km/h 90% 0in /  0.0mm 0 W/m2
03:36 48.2 °F /  9 °C 45.3 °F /  7.4 °C 29.7in /  1006.8hPa WSW 2.9mph /  4.7km/h 12mph /  19.3km/h 90% 0in /  0.0mm 0 W/m2
03:41 48 °F /  8.9 °C 45.1 °F /  7.3 °C 29.7in /  1006.8hPa West 8.9mph /  14.3km/h 12mph /  19.3km/h 90% 0in /  0.0mm 0 W/m2
03:46 48 °F /  8.9 °C 45.1 °F /  7.3 °C 29.7in /  1006.8hPa WSW 4mph /  6.4km/h 10mph /  16.1km/h 90% 0in /  0.0mm 0 W/m2
03:51 48 °F /  8.9 °C 45.1 °F /  7.3 °C 29.7in /  1006.8hPa WSW 6.9mph /  11.1km/h 12mph /  19.3km/h 90% 0in /  0.0mm 0 W/m2
03:56 47.8 °F /  8.8 °C 45 °F /  7.2 °C 29.7in /  1007.1hPa WNW 4mph /  6.4km/h 10mph /  16.1km/h 90% 0in /  0.0mm 0 W/m2
04:01 47.7 °F /  8.7 °C 45.1 °F /  7.3 °C 29.7in /  1007.1hPa West 6mph /  9.7km/h 9mph /  14.5km/h 91% 0in /  0.0mm 0 W/m2
04:06 47.5 °F /  8.6 °C 45 °F /  7.2 °C 29.7in /  1007.1hPa WSW 2.9mph /  4.7km/h 10mph /  16.1km/h 91% 0in /  0.0mm 0 W/m2
04:11 47.5 °F /  8.6 °C 45 °F /  7.2 °C 29.7in /  1007.1hPa SSW 6mph /  9.7km/h 9mph /  14.5km/h 91% 0in /  0.0mm 0 W/m2
04:16 47.5 °F /  8.6 °C 45.3 °F /  7.4 °C 29.7in /  1007.1hPa WSW 6.9mph /  11.1km/h 7mph /  11.3km/h 92% 0in /  0.0mm 0 W/m2
04:21 47.5 °F /  8.6 °C 45.3 °F /  7.4 °C 29.7in /  1006.8hPa West 6mph /  9.7km/h 9mph /  14.5km/h 92% 0in /  0.0mm 0 W/m2
04:26 47.3 °F /  8.5 °C 45.1 °F /  7.3 °C 29.7in /  1007.1hPa West 2.9mph /  4.7km/h 6mph /  9.7km/h 92% 0in /  0.0mm 0 W/m2
04:31 47.1 °F /  8.4 °C 45 °F /  7.2 °C 29.7in /  1006.8hPa Calm   9mph /  14.5km/h 92% 0in /  0.0mm 0 W/m2
04:36 47.1 °F /  8.4 °C 45.1 °F /  7.3 °C 29.7in /  1006.8hPa Calm   1mph /  1.6km/h 93% 0in /  0.0mm 0 W/m2
04:41 47.1 °F /  8.4 °C 45 °F /  7.2 °C 29.7in /  1006.8hPa WNW 0.9mph /  1.4km/h 2mph /  3.2km/h 92% 0in /  0.0mm 0 W/m2
04:46 47.1 °F /  8.4 °C 45 °F /  7.2 °C 29.7in /  1007.1hPa East 4mph /  6.4km/h 4mph /  6.4km/h 92% 0in /  0.0mm 0 W/m2
04:51 47.1 °F /  8.4 °C 45.1 °F /  7.3 °C 29.7in /  1007.1hPa NNW 0.9mph /  1.4km/h 3mph /  4.8km/h 93% 0in /  0.0mm 0 W/m2
04:56 47.1 °F /  8.4 °C 45.1 °F /  7.3 °C 29.8in /  1007.5hPa Calm   6mph /  9.7km/h 93% 0in /  0.0mm 0 W/m2
05:01 47.1 °F /  8.4 °C 45.1 °F /  7.3 °C 29.8in /  1007.5hPa WSW 0.9mph /  1.4km/h 4mph /  6.4km/h 93% 0in /  0.0mm 0 W/m2
05:06 47.1 °F /  8.4 °C 45.1 °F /  7.3 °C 29.8in /  1007.5hPa ESE 0.9mph /  1.4km/h 5mph /  8km/h 93% 0in /  0.0mm 0 W/m2
05:11 47.1 °F /  8.4 °C 45 °F /  7.2 °C 29.8in /  1007.5hPa SW 0.9mph /  1.4km/h 2mph /  3.2km/h 92% 0in /  0.0mm 0 W/m2
05:16 47.1 °F /  8.4 °C 45 °F /  7.2 °C 29.8in /  1007.5hPa South 0.9mph /  1.4km/h 2mph /  3.2km/h 92% 0in /  0.0mm 0 W/m2
05:21 47.1 °F /  8.4 °C 45 °F /  7.2 °C 29.8in /  1007.5hPa West 2.9mph /  4.7km/h 3mph /  4.8km/h 92% 0in /  0.0mm 0 W/m2
05:26 47.1 °F /  8.4 °C 45 °F /  7.2 °C 29.8in /  1007.5hPa WSW 2.9mph /  4.7km/h 7mph /  11.3km/h 92% 0in /  0.0mm 0 W/m2
05:32 47.1 °F /  8.4 °C 45 °F /  7.2 °C 29.8in /  1007.5hPa West 4mph /  6.4km/h 7mph /  11.3km/h 92% 0in /  0.0mm 0 W/m2
05:37 47.1 °F /  8.4 °C 45 °F /  7.2 °C 29.8in /  1007.5hPa SW 2mph /  3.2km/h 4mph /  6.4km/h 92% 0in /  0.0mm 0 W/m2
05:42 47.1 °F /  8.4 °C 45 °F /  7.2 °C 29.8in /  1007.5hPa SE 0.9mph /  1.4km/h 7mph /  11.3km/h 92% 0in /  0.0mm 0 W/m2
05:47 47.1 °F /  8.4 °C 45 °F /  7.2 °C 29.8in /  1007.8hPa WSW 2mph /  3.2km/h 4mph /  6.4km/h 92% 0in /  0.0mm 0 W/m2
05:52 47.1 °F /  8.4 °C 45 °F /  7.2 °C 29.8in /  1007.8hPa WSW 4.9mph /  7.9km/h 7mph /  11.3km/h 92% 0in /  0.0mm 0 W/m2
05:57 47.1 °F /  8.4 °C 45 °F /  7.2 °C 29.8in /  1007.8hPa Calm   4mph /  6.4km/h 92% 0in /  0.0mm 0 W/m2
06:02 47.1 °F /  8.4 °C 45 °F /  7.2 °C 29.8in /  1007.8hPa WSW 4.9mph /  7.9km/h 6mph /  9.7km/h 92% 0in /  0.0mm 0 W/m2
06:07 47.1 °F /  8.4 °C 45 °F /  7.2 °C 29.8in /  1007.8hPa WSW 4mph /  6.4km/h 5mph /  8km/h 92% 0in /  0.0mm 0 W/m2
06:12 47.1 °F /  8.4 °C 45 °F /  7.2 °C 29.8in /  1007.8hPa WSW 4mph /  6.4km/h 4mph /  6.4km/h 92% 0in /  0.0mm 0 W/m2
06:17 47.1 °F /  8.4 °C 45 °F /  7.2 °C 29.8in /  1007.8hPa WSW 0.9mph /  1.4km/h 5mph /  8km/h 92% 0in /  0.0mm 0 W/m2
06:22 47.1 °F /  8.4 °C 45 °F /  7.2 °C 29.8in /  1007.8hPa Calm   6mph /  9.7km/h 92% 0in /  0.0mm 0 W/m2
06:27 47.1 °F /  8.4 °C 45 °F /  7.2 °C 29.8in /  1007.8hPa West 6.9mph /  11.1km/h 9mph /  14.5km/h 92% 0in /  0.0mm 0 W/m2
06:32 47.1 °F /  8.4 °C 45 °F /  7.2 °C 29.8in /  1007.8hPa NW 0.9mph /  1.4km/h 7mph /  11.3km/h 92% 0in /  0.0mm 0 W/m2
06:37 47.1 °F /  8.4 °C 45 °F /  7.2 °C 29.8in /  1007.8hPa WSW 2.9mph /  4.7km/h 7mph /  11.3km/h 92% 0in /  0.0mm 0 W/m2
06:42 46.9 °F /  8.3 °C 44.8 °F /  7.1 °C 29.8in /  1007.8hPa WNW 2.9mph /  4.7km/h 6mph /  9.7km/h 92% 0in /  0.0mm 0 W/m2
06:47 46.9 °F /  8.3 °C 44.8 °F /  7.1 °C 29.8in /  1007.8hPa West 2.9mph /  4.7km/h 4mph /  6.4km/h 92% 0in /  0.0mm 0 W/m2
06:52 46.9 °F /  8.3 °C 44.8 °F /  7.1 °C 29.8in /  1007.8hPa WSW 2.9mph /  4.7km/h 5mph /  8km/h 92% 0in /  0.0mm 0 W/m2
06:57 46.9 °F /  8.3 °C 45 °F /  7.2 °C 29.8in /  1007.8hPa NW 2mph /  3.2km/h 4mph /  6.4km/h 93% 0in /  0.0mm 0 W/m2
07:02 46.9 °F /  8.3 °C 45 °F /  7.2 °C 29.8in /  1008.1hPa WNW 2.9mph /  4.7km/h 6mph /  9.7km/h 93% 0in /  0.0mm 0 W/m2
07:07 46.9 °F /  8.3 °C 45 °F /  7.2 °C 29.8in /  1008.1hPa West 2.9mph /  4.7km/h 7mph /  11.3km/h 93% 0in /  0.0mm 0 W/m2
07:12 46.8 °F /  8.2 °C 44.8 °F /  7.1 °C 29.8in /  1008.1hPa West 2mph /  3.2km/h 6mph /  9.7km/h 93% 0in /  0.0mm 0 W/m2
07:17 46.8 °F /  8.2 °C 44.8 °F /  7.1 °C 29.8in /  1008.1hPa West 4mph /  6.4km/h 4mph /  6.4km/h 93% 0in /  0.0mm 0 W/m2
07:22 46.8 °F /  8.2 °C 44.8 °F /  7.1 °C 29.8in /  1008.1hPa West 2.9mph /  4.7km/h 3mph /  4.8km/h 93% 0in /  0.0mm 0 W/m2
07:27 46.8 °F /  8.2 °C 44.8 °F /  7.1 °C 29.8in /  1008.1hPa WNW 2mph /  3.2km/h 6mph /  9.7km/h 93% 0in /  0.0mm 0 W/m2
07:32 46.8 °F /  8.2 °C 44.8 °F /  7.1 °C 29.8in /  1008.1hPa NW 2mph /  3.2km/h 5mph /  8km/h 93% 0in /  0.0mm 0 W/m2
07:37 46.8 °F /  8.2 °C 44.8 °F /  7.1 °C 29.8in /  1008.1hPa WNW 2.9mph /  4.7km/h 7mph /  11.3km/h 93% 0in /  0.0mm 0 W/m2
07:42 46.8 °F /  8.2 °C 44.8 °F /  7.1 °C 29.8in /  1008.1hPa WSW 4mph /  6.4km/h 7mph /  11.3km/h 93% 0in /  0.0mm 0 W/m2
07:47 46.8 °F /  8.2 °C 44.8 °F /  7.1 °C 29.8in /  1008.1hPa WNW 2.9mph /  4.7km/h 3mph /  4.8km/h 93% 0in /  0.0mm 0 W/m2
07:52 46.8 °F /  8.2 °C 44.8 °F /  7.1 °C 29.8in /  1008.1hPa WNW 2.9mph /  4.7km/h 9mph /  14.5km/h 93% 0in /  0.0mm 0 W/m2
07:57 46.6 °F /  8.1 °C 44.6 °F /  7 °C 29.8in /  1008.1hPa West 4mph /  6.4km/h 4mph /  6.4km/h 93% 0in /  0.0mm 0 W/m2
08:02 46.6 °F /  8.1 °C 45 °F /  7.2 °C 29.8in /  1008.5hPa West 0.9mph /  1.4km/h 8mph /  12.9km/h 94% 0in /  0.0mm 0 W/m2
08:07 46.6 °F /  8.1 °C 45 °F /  7.2 °C 29.8in /  1008.5hPa Calm   2mph /  3.2km/h 94% 0in /  0.0mm 0 W/m2
08:12 46.6 °F /  8.1 °C 45 °F /  7.2 °C 29.8in /  1008.5hPa Calm   1mph /  1.6km/h 94% 0in /  0.0mm 0 W/m2
08:17 46.6 °F /  8.1 °C 45 °F /  7.2 °C 29.8in /  1008.5hPa Calm   2mph /  3.2km/h 94% 0in /  0.0mm 0 W/m2
08:22 46.6 °F /  8.1 °C 45 °F /  7.2 °C 29.8in /  1008.5hPa Calm   1mph /  1.6km/h 94% 0in /  0.0mm 0 W/m2
08:27 46.4 °F /  8 °C 44.8 °F /  7.1 °C 29.8in /  1008.5hPa Calm     94% 0in /  0.0mm 0 W/m2
08:32 46.4 °F /  8 °C 44.8 °F /  7.1 °C 29.8in /  1008.8hPa West 0.9mph /  1.4km/h 2mph /  3.2km/h 94% 0in /  0.0mm 0 W/m2
08:37 46.4 °F /  8 °C 44.8 °F /  7.1 °C 29.8in /  1008.8hPa Calm   2mph /  3.2km/h 94% 0in /  0.0mm 0 W/m2
08:42 46.2 °F /  7.9 °C 44.8 °F /  7.1 °C 29.8in /  1008.8hPa Calm     95% 0in /  0.0mm 0 W/m2
08:47 46.2 °F /  7.9 °C 44.8 °F /  7.1 °C 29.8in /  1009.1hPa Calm   3mph /  4.8km/h 95% 0in /  0.0mm 0 W/m2
08:52 46.2 °F /  7.9 °C 44.8 °F /  7.1 °C 29.8in /  1009.1hPa Calm   1mph /  1.6km/h 95% 0in /  0.0mm 0 W/m2
08:57 46.2 °F /  7.9 °C 44.8 °F /  7.1 °C 29.8in /  1009.1hPa Calm   3mph /  4.8km/h 95% 0in /  0.0mm 0 W/m2
09:02 46.2 °F /  7.9 °C 44.8 °F /  7.1 °C 29.8in /  1008.8hPa Calm     95% 0in /  0.0mm 5 W/m2
09:07 46.2 °F /  7.9 °C 44.8 °F /  7.1 °C 29.8in /  1009.1hPa Calm     95% 0in /  0.0mm 0 W/m2
09:12 46.2 °F /  7.9 °C 44.8 °F /  7.1 °C 29.8in /  1009.1hPa NW 2mph /  3.2km/h 3mph /  4.8km/h 95% 0in /  0.0mm 7 W/m2
09:17 46.4 °F /  8 °C 45 °F /  7.2 °C 29.8in /  1009.1hPa NW 0.9mph /  1.4km/h 2mph /  3.2km/h 95% 0in /  0.0mm 9 W/m2
09:22 46.6 °F /  8.1 °C 45.1 °F /  7.3 °C 29.8in /  1009.1hPa Calm     95% 0in /  0.0mm 7 W/m2
09:27 46.6 °F /  8.1 °C 45.1 °F /  7.3 °C 29.8in /  1009.1hPa Calm     95% 0in /  0.0mm 11 W/m2
09:32 46.6 °F /  8.1 °C 45.1 °F /  7.3 °C 29.8in /  1009.1hPa Calm   4mph /  6.4km/h 95% 0in /  0.0mm 11 W/m2
09:37 46.6 °F /  8.1 °C 45.1 °F /  7.3 °C 29.8in /  1009.1hPa Calm     95% 0.01in /  0.2mm 9 W/m2
09:42 46.6 °F /  8.1 °C 45.5 °F /  7.5 °C 29.8in /  1009.1hPa Calm   4mph /  6.4km/h 96% 0.01in /  0.2mm 11 W/m2
09:47 46.6 °F /  8.1 °C 45.5 °F /  7.5 °C 29.8in /  1009.1hPa Calm   2mph /  3.2km/h 96% 0.01in /  0.2mm 9 W/m2
09:52 46.6 °F /  8.1 °C 45.5 °F /  7.5 °C 29.8in /  1009.1hPa Calm   4mph /  6.4km/h 96% 0.01in /  0.2mm 11 W/m2
09:57 46.8 °F /  8.2 °C 45.7 °F /  7.6 °C 29.8in /  1009.1hPa Calm   3mph /  4.8km/h 96% 0.01in /  0.2mm 11 W/m2
10:02 46.8 °F /  8.2 °C 45.7 °F /  7.6 °C 29.8in /  1009.1hPa NE 2.9mph /  4.7km/h 4mph /  6.4km/h 96% 0.01in /  0.2mm 14 W/m2
10:07 46.8 °F /  8.2 °C 45.7 °F /  7.6 °C 29.8in /  1009.5hPa SW 0.9mph /  1.4km/h 2mph /  3.2km/h 96% 0.01in /  0.2mm 12 W/m2
10:12 46.8 °F /  8.2 °C 45.7 °F /  7.6 °C 29.8in /  1009.5hPa NNE 2.9mph /  4.7km/h 4mph /  6.4km/h 96% 0.02in /  0.5mm 14 W/m2
10:17 46.8 °F /  8.2 °C 45.7 °F /  7.6 °C 29.8in /  1009.5hPa Calm     96% 0.02in /  0.5mm 19 W/m2
10:22 46.8 °F /  8.2 °C 45.3 °F /  7.4 °C 29.8in /  1009.5hPa NNW 2.9mph /  4.7km/h 4mph /  6.4km/h 95% 0.02in /  0.5mm 16 W/m2
10:27 46.9 °F /  8.3 °C 45.5 °F /  7.5 °C 29.8in /  1009.5hPa Calm   1mph /  1.6km/h 95% 0.02in /  0.5mm 19 W/m2
10:32 46.9 °F /  8.3 °C 45.5 °F /  7.5 °C 29.8in /  1009.1hPa Calm   3mph /  4.8km/h 95% 0.02in /  0.5mm 19 W/m2
10:37 46.9 °F /  8.3 °C 45.5 °F /  7.5 °C 29.8in /  1009.1hPa NNW 0.9mph /  1.4km/h 2mph /  3.2km/h 95% 0.02in /  0.5mm 26 W/m2
10:42 46.9 °F /  8.3 °C 45.5 °F /  7.5 °C 29.8in /  1009.1hPa ENE 2.9mph /  4.7km/h 3mph /  4.8km/h 95% 0.02in /  0.5mm 32 W/m2
10:47 46.9 °F /  8.3 °C 45.5 °F /  7.5 °C 29.8in /  1009.1hPa Calm   3mph /  4.8km/h 95% 0.03in /  0.8mm 39 W/m2
10:52 47.1 °F /  8.4 °C 45.7 °F /  7.6 °C 29.8in /  1009.1hPa WSW 2mph /  3.2km/h 3mph /  4.8km/h 95% 0.03in /  0.8mm 32 W/m2
10:57 47.1 °F /  8.4 °C 45.7 °F /  7.6 °C 29.8in /  1009.1hPa Calm   2mph /  3.2km/h 95% 0.03in /  0.8mm 37 W/m2
11:02 47.1 °F /  8.4 °C 45.7 °F /  7.6 °C 29.8in /  1009.1hPa NW 2mph /  3.2km/h 4mph /  6.4km/h 95% 0.03in /  0.8mm 51 W/m2
11:07 47.1 °F /  8.4 °C 45.7 °F /  7.6 °C 29.8in /  1009.1hPa SE 0.9mph /  1.4km/h 2mph /  3.2km/h 95% 0.02in /  0.5mm 79 W/m2
11:12 47.1 °F /  8.4 °C 45.7 °F /  7.6 °C 29.8in /  1009.1hPa Calm   4mph /  6.4km/h 95% 0.03in /  0.8mm 60 W/m2
11:17 47.3 °F /  8.5 °C 45.9 °F /  7.7 °C 29.8in /  1008.8hPa Calm   3mph /  4.8km/h 95% 0.03in /  0.8mm 49 W/m2
11:22 47.5 °F /  8.6 °C 46 °F /  7.8 °C 29.8in /  1009.1hPa NNW 2mph /  3.2km/h 4mph /  6.4km/h 95% 0.03in /  0.8mm 58 W/m2
11:27 47.5 °F /  8.6 °C 46 °F /  7.8 °C 29.8in /  1008.8hPa NNW 2mph /  3.2km/h 6mph /  9.7km/h 95% 0.02in /  0.5mm 69 W/m2
11:32 47.5 °F /  8.6 °C 46 °F /  7.8 °C 29.8in /  1008.8hPa NNW 2.9mph /  4.7km/h 4mph /  6.4km/h 95% 0.02in /  0.5mm 60 W/m2
11:37 47.5 °F /  8.6 °C 46 °F /  7.8 °C 29.8in /  1008.8hPa West 2.9mph /  4.7km/h 6mph /  9.7km/h 95% 0.02in /  0.5mm 42 W/m2
11:42 47.7 °F /  8.7 °C 46.2 °F /  7.9 °C 29.8in /  1008.8hPa WNW 0.9mph /  1.4km/h 6mph /  9.7km/h 95% 0.02in /  0.5mm 54 W/m2
11:47 47.5 °F /  8.6 °C 46 °F /  7.8 °C 29.8in /  1008.8hPa WSW 0.9mph /  1.4km/h 3mph /  4.8km/h 95% 0.01in /  0.2mm 47 W/m2
11:52 47.5 °F /  8.6 °C 46 °F /  7.8 °C 29.8in /  1009.1hPa NW 4mph /  6.4km/h 4mph /  6.4km/h 95% 0.01in /  0.2mm 25 W/m2
11:57 47.5 °F /  8.6 °C 46 °F /  7.8 °C 29.8in /  1009.1hPa West 4mph /  6.4km/h 6mph /  9.7km/h 95% 0.01in /  0.2mm 30 W/m2
12:02 47.5 °F /  8.6 °C 46 °F /  7.8 °C 29.8in /  1009.1hPa ENE 2mph /  3.2km/h 2mph /  3.2km/h 95% 0.01in /  0.2mm 37 W/m2
12:07 47.5 °F /  8.6 °C 46 °F /  7.8 °C 29.8in /  1009.1hPa NNE 2mph /  3.2km/h 2mph /  3.2km/h 95% 0.01in /  0.2mm 47 W/m2
12:12 47.7 °F /  8.7 °C 46 °F /  7.8 °C 29.8in /  1009.1hPa NNW 0.9mph /  1.4km/h 2mph /  3.2km/h 94% 0in /  0.0mm 62 W/m2
12:17 47.7 °F /  8.7 °C 46 °F /  7.8 °C 29.8in /  1009.1hPa WSW 2.9mph /  4.7km/h 6mph /  9.7km/h 94% 0in /  0.0mm 77 W/m2
12:22 47.7 °F /  8.7 °C 46 °F /  7.8 °C 29.8in /  1008.8hPa SW 2mph /  3.2km/h 4mph /  6.4km/h 94% 0.01in /  0.2mm 95 W/m2
12:27 47.7 °F /  8.7 °C 46 °F /  7.8 °C 29.8in /  1008.8hPa NW 2.9mph /  4.7km/h 3mph /  4.8km/h 94% 0.01in /  0.2mm 79 W/m2
12:32 47.7 °F /  8.7 °C 46 °F /  7.8 °C 29.8in /  1008.8hPa NW 2mph /  3.2km/h 3mph /  4.8km/h 94% 0.01in /  0.2mm 72 W/m2
12:37 47.7 °F /  8.7 °C 46 °F /  7.8 °C 29.8in /  1008.8hPa Calm   3mph /  4.8km/h 94% 0.02in /  0.5mm 88 W/m2
12:42 47.7 °F /  8.7 °C 46 °F /  7.8 °C 29.8in /  1008.8hPa West 2.9mph /  4.7km/h 5mph /  8km/h 94% 0.02in /  0.5mm 79 W/m2
12:47 47.7 °F /  8.7 °C 46 °F /  7.8 °C 29.8in /  1008.8hPa Calm   4mph /  6.4km/h 94% 0.02in /  0.5mm 74 W/m2
12:52 47.7 °F /  8.7 °C 46 °F /  7.8 °C 29.8in /  1008.8hPa NW 4mph /  6.4km/h 5mph /  8km/h 94% 0.02in /  0.5mm 76 W/m2
12:57 47.7 °F /  8.7 °C 46 °F /  7.8 °C 29.8in /  1008.8hPa WNW 0.9mph /  1.4km/h 2mph /  3.2km/h 94% 0.02in /  0.5mm 69 W/m2
13:02 47.7 °F /  8.7 °C 46 °F /  7.8 °C 29.8in /  1008.5hPa Calm   1mph /  1.6km/h 94% 0.02in /  0.5mm 72 W/m2
13:07 47.7 °F /  8.7 °C 46 °F /  7.8 °C 29.8in /  1008.8hPa NW 0.9mph /  1.4km/h 3mph /  4.8km/h 94% 0.02in /  0.5mm 67 W/m2
13:12 47.7 °F /  8.7 °C 46 °F /  7.8 °C 29.8in /  1008.8hPa NNW 0.9mph /  1.4km/h 3mph /  4.8km/h 94% 0.02in /  0.5mm 63 W/m2
13:17 47.7 °F /  8.7 °C 46 °F /  7.8 °C 29.8in /  1008.5hPa Calm   3mph /  4.8km/h 94% 0.02in /  0.5mm 67 W/m2
13:22 47.7 °F /  8.7 °C 46 °F /  7.8 °C 29.8in /  1008.8hPa NE 2mph /  3.2km/h 2mph /  3.2km/h 94% 0.01in /  0.2mm 53 W/m2
13:27 47.7 °F /  8.7 °C 46 °F /  7.8 °C 29.8in /  1008.8hPa Calm   3mph /  4.8km/h 94% 0.01in /  0.2mm 51 W/m2
13:32 47.7 °F /  8.7 °C 46 °F /  7.8 °C 29.8in /  1008.5hPa Calm   2mph /  3.2km/h 94% 0.01in /  0.2mm 54 W/m2
13:37 47.7 °F /  8.7 °C 46 °F /  7.8 °C 29.8in /  1008.5hPa Calm   1mph /  1.6km/h 94% 0in /  0.0mm 49 W/m2
13:42 47.8 °F /  8.8 °C 46.2 °F /  7.9 °C 29.8in /  1008.5hPa NE 0.9mph /  1.4km/h 3mph /  4.8km/h 94% 0in /  0.0mm 51 W/m2
13:47 47.8 °F /  8.8 °C 46.2 °F /  7.9 °C 29.8in /  1008.5hPa Calm   2mph /  3.2km/h 94% 0in /  0.0mm 58 W/m2
13:52 47.8 °F /  8.8 °C 46.2 °F /  7.9 °C 29.8in /  1008.5hPa NW 0.9mph /  1.4km/h 9mph /  14.5km/h 94% 0in /  0.0mm 58 W/m2
13:57 47.8 °F /  8.8 °C 46.2 °F /  7.9 °C 29.8in /  1008.5hPa Calm   2mph /  3.2km/h 94% 0in /  0.0mm 53 W/m2
14:02 47.8 °F /  8.8 °C 46.2 °F /  7.9 °C 29.8in /  1008.5hPa Calm   3mph /  4.8km/h 94% 0in /  0.0mm 42 W/m2
14:07 47.8 °F /  8.8 °C 46.2 °F /  7.9 °C 29.8in /  1008.5hPa Calm   2mph /  3.2km/h 94% 0in /  0.0mm 35 W/m2
14:12 48 °F /  8.9 °C 46.4 °F /  8 °C 29.8in /  1008.5hPa ENE 2mph /  3.2km/h 3mph /  4.8km/h 94% 0in /  0.0mm 32 W/m2
14:17 48 °F /  8.9 °C 46.4 °F /  8 °C 29.8in /  1008.5hPa Calm   4mph /  6.4km/h 94% 0in /  0.0mm 30 W/m2
14:22 48 °F /  8.9 °C 46.4 °F /  8 °C 29.8in /  1008.5hPa Calm   4mph /  6.4km/h 94% 0in /  0.0mm 30 W/m2
14:27 48 °F /  8.9 °C 46.6 °F /  8.1 °C 29.8in /  1008.5hPa NE 2.9mph /  4.7km/h 3mph /  4.8km/h 95% 0in /  0.0mm 33 W/m2
14:32 48 °F /  8.9 °C 46.6 °F /  8.1 °C 29.8in /  1008.5hPa ENE 2.9mph /  4.7km/h 3mph /  4.8km/h 95% 0in /  0.0mm 30 W/m2
14:37 48 °F /  8.9 °C 46.6 °F /  8.1 °C 29.8in /  1008.5hPa NNE 0.9mph /  1.4km/h 2mph /  3.2km/h 95% 0in /  0.0mm 30 W/m2
14:42 48 °F /  8.9 °C 46.6 °F /  8.1 °C 29.8in /  1008.5hPa Calm   3mph /  4.8km/h 95% 0in /  0.0mm 26 W/m2
14:47 48.2 °F /  9 °C 46.8 °F /  8.2 °C 29.8in /  1008.5hPa NW 0.9mph /  1.4km/h 3mph /  4.8km/h 95% 0in /  0.0mm 28 W/m2
14:52 48.2 °F /  9 °C 46.8 °F /  8.2 °C 29.8in /  1008.5hPa North 0.9mph /  1.4km/h 3mph /  4.8km/h 95% 0.01in /  0.2mm 32 W/m2
14:57 48.2 °F /  9 °C 46.8 °F /  8.2 °C 29.8in /  1008.5hPa North 0.9mph /  1.4km/h 3mph /  4.8km/h 95% 0.01in /  0.2mm 26 W/m2
15:02 48.4 °F /  9.1 °C 46.9 °F /  8.3 °C 29.8in /  1008.5hPa West 2mph /  3.2km/h 4mph /  6.4km/h 95% 0.01in /  0.2mm 23 W/m2
15:07 48.4 °F /  9.1 °C 46.9 °F /  8.3 °C 29.8in /  1008.5hPa Calm   2mph /  3.2km/h 95% 0.01in /  0.2mm 25 W/m2
15:12 48.4 °F /  9.1 °C 46.9 °F /  8.3 °C 29.8in /  1008.5hPa ENE 2mph /  3.2km/h 3mph /  4.8km/h 95% 0.02in /  0.5mm 28 W/m2
15:17 48.4 °F /  9.1 °C 46.9 °F /  8.3 °C 29.8in /  1008.5hPa Calm   2mph /  3.2km/h 95% 0.02in /  0.5mm 30 W/m2
15:22 48.4 °F /  9.1 °C 46.9 °F /  8.3 °C 29.8in /  1008.5hPa NE 0.9mph /  1.4km/h 3mph /  4.8km/h 95% 0.02in /  0.5mm 23 W/m2
15:27 48.6 °F /  9.2 °C 47.1 °F /  8.4 °C 29.8in /  1008.5hPa NE 0.9mph /  1.4km/h 2mph /  3.2km/h 95% 0.02in /  0.5mm 19 W/m2
15:32 48.6 °F /  9.2 °C 47.1 °F /  8.4 °C 29.8in /  1008.1hPa NE 0.9mph /  1.4km/h 3mph /  4.8km/h 95% 0.02in /  0.5mm 19 W/m2
15:37 48.6 °F /  9.2 °C 47.1 °F /  8.4 °C 29.8in /  1008.1hPa NE 2mph /  3.2km/h 2mph /  3.2km/h 95% 0.02in /  0.5mm 16 W/m2
15:42 48.6 °F /  9.2 °C 47.1 °F /  8.4 °C 29.8in /  1008.1hPa Calm   2mph /  3.2km/h 95% 0.02in /  0.5mm 18 W/m2
15:47 48.7 °F /  9.3 °C 47.3 °F /  8.5 °C 29.8in /  1008.1hPa Calm   1mph /  1.6km/h 95% 0.02in /  0.5mm 14 W/m2
15:52 48.7 °F /  9.3 °C 47.3 °F /  8.5 °C 29.8in /  1008.1hPa East 2.9mph /  4.7km/h 3mph /  4.8km/h 95% 0.02in /  0.5mm 16 W/m2
15:57 48.7 °F /  9.3 °C 47.3 °F /  8.5 °C 29.8in /  1008.1hPa Calm   1mph /  1.6km/h 95% 0.02in /  0.5mm 14 W/m2
16:02 48.9 °F /  9.4 °C 47.8 °F /  8.8 °C 29.8in /  1008.1hPa WNW 4mph /  6.4km/h 4mph /  6.4km/h 96% 0.02in /  0.5mm 9 W/m2
16:07 49.1 °F /  9.5 °C 48 °F /  8.9 °C 29.8in /  1008.5hPa North 0.9mph /  1.4km/h 3mph /  4.8km/h 96% 0.02in /  0.5mm 9 W/m2
16:12 49.3 °F /  9.6 °C 48.2 °F /  9 °C 29.8in /  1008.1hPa NW 0.9mph /  1.4km/h 4mph /  6.4km/h 96% 0.02in /  0.5mm 9 W/m2
16:17 49.3 °F /  9.6 °C 48.2 °F /  9 °C 29.8in /  1008.1hPa Calm   2mph /  3.2km/h 96% 0.02in /  0.5mm 7 W/m2
16:22 49.3 °F /  9.6 °C 48.2 °F /  9 °C 29.8in /  1008.1hPa NE 2mph /  3.2km/h 2mph /  3.2km/h 96% 0.02in /  0.5mm 5 W/m2
16:27 49.5 °F /  9.7 °C 48.4 °F /  9.1 °C 29.8in /  1008.1hPa Calm   2mph /  3.2km/h 96% 0.02in /  0.5mm 5 W/m2
16:33 49.5 °F /  9.7 °C 48.4 °F /  9.1 °C 29.8in /  1008.1hPa Calm   1mph /  1.6km/h 96% 0.03in /  0.8mm 0 W/m2
16:38 49.6 °F /  9.8 °C 48.6 °F /  9.2 °C 29.8in /  1008.1hPa NE 2mph /  3.2km/h 3mph /  4.8km/h 96% 0.02in /  0.5mm 0 W/m2
16:43 49.6 °F /  9.8 °C 48.6 °F /  9.2 °C 29.8in /  1008.1hPa West 2mph /  3.2km/h 3mph /  4.8km/h 96% 0.02in /  0.5mm 0 W/m2
16:48 49.8 °F /  9.9 °C 48.7 °F /  9.3 °C 29.8in /  1008.1hPa NNW 2mph /  3.2km/h 4mph /  6.4km/h 96% 0.02in /  0.5mm 0 W/m2
16:53 50 °F /  10 °C 48.9 °F /  9.4 °C 29.8in /  1008.1hPa NNW 2mph /  3.2km/h 3mph /  4.8km/h 96% 0.02in /  0.5mm 0 W/m2
16:58 50.2 °F /  10.1 °C 49.1 °F /  9.5 °C 29.8in /  1008.5hPa WSW 2mph /  3.2km/h 4mph /  6.4km/h 96% 0.02in /  0.5mm 0 W/m2
17:03 50.2 °F /  10.1 °C 49.1 °F /  9.5 °C 29.8in /  1008.5hPa Calm   1mph /  1.6km/h 96% 0.03in /  0.8mm 0 W/m2
17:08 50.2 °F /  10.1 °C 49.1 °F /  9.5 °C 29.8in /  1008.5hPa NNW 0.9mph /  1.4km/h 3mph /  4.8km/h 96% 0.02in /  0.5mm 0 W/m2
17:13 50.4 °F /  10.2 °C 49.3 °F /  9.6 °C 29.8in /  1008.5hPa NNE 0.9mph /  1.4km/h 6mph /  9.7km/h 96% 0.02in /  0.5mm 0 W/m2
17:18 50.5 °F /  10.3 °C 49.5 °F /  9.7 °C 29.8in /  1008.5hPa NNW 2mph /  3.2km/h 2mph /  3.2km/h 96% 0.02in /  0.5mm 0 W/m2
17:23 50.5 °F /  10.3 °C 49.5 °F /  9.7 °C 29.8in /  1008.5hPa NNW 0.9mph /  1.4km/h 4mph /  6.4km/h 96% 0.02in /  0.5mm 0 W/m2
17:28 50.7 °F /  10.4 °C 49.6 °F /  9.8 °C 29.8in /  1008.5hPa WSW 0.9mph /  1.4km/h 3mph /  4.8km/h 96% 0.02in /  0.5mm 0 W/m2
17:33 51.1 °F /  10.6 °C 50 °F /  10 °C 29.8in /  1008.5hPa NNW 2mph /  3.2km/h 9mph /  14.5km/h 96% 0.02in /  0.5mm 0 W/m2
17:38 51.3 °F /  10.7 °C 50.2 °F /  10.1 °C 29.8in /  1008.5hPa WNW 2mph /  3.2km/h 4mph /  6.4km/h 96% 0.02in /  0.5mm 0 W/m2
17:43 51.4 °F /  10.8 °C 50.4 °F /  10.2 °C 29.8in /  1008.5hPa WNW 0.9mph /  1.4km/h 2mph /  3.2km/h 96% 0.02in /  0.5mm 0 W/m2
17:48 51.6 °F /  10.9 °C 50.5 °F /  10.3 °C 29.8in /  1008.5hPa North 2.9mph /  4.7km/h 6mph /  9.7km/h 96% 0.02in /  0.5mm 0 W/m2
17:53 51.6 °F /  10.9 °C 50.5 °F /  10.3 °C 29.8in /  1008.5hPa NW 2mph /  3.2km/h 3mph /  4.8km/h 96% 0.02in /  0.5mm 0 W/m2
17:58 52 °F /  11.1 °C 50.9 °F /  10.5 °C 29.8in /  1008.5hPa WNW 2.9mph /  4.7km/h 4mph /  6.4km/h 96% 0.02in /  0.5mm 0 W/m2
18:03 52.3 °F /  11.3 °C 51.3 °F /  10.7 °C 29.8in /  1008.8hPa NW 4mph /  6.4km/h 7mph /  11.3km/h 96% 0.02in /  0.5mm 0 W/m2
18:08 52.5 °F /  11.4 °C 51.4 °F /  10.8 °C 29.8in /  1008.8hPa NNW 2mph /  3.2km/h 4mph /  6.4km/h 96% 0.02in /  0.5mm 0 W/m2
18:13 52.9 °F /  11.6 °C 51.8 °F /  11 °C 29.8in /  1008.8hPa WSW 2mph /  3.2km/h 6mph /  9.7km/h 96% 0.02in /  0.5mm 0 W/m2
18:18 53.1 °F /  11.7 °C 52 °F /  11.1 °C 29.8in /  1008.8hPa NW 2.9mph /  4.7km/h 5mph /  8km/h 96% 0.02in /  0.5mm 0 W/m2
18:23 53.2 °F /  11.8 °C 52.2 °F /  11.2 °C 29.8in /  1008.8hPa WNW 0.9mph /  1.4km/h 10mph /  16.1km/h 96% 0.02in /  0.5mm 0 W/m2
18:28 53.4 °F /  11.9 °C 52.3 °F /  11.3 °C 29.8in /  1008.8hPa WNW 4mph /  6.4km/h 17mph /  27.4km/h 96% 0.01in /  0.2mm 0 W/m2
18:33 53.8 °F /  12.1 °C 52.7 °F /  11.5 °C 29.8in /  1009.1hPa WNW 2mph /  3.2km/h 8mph /  12.9km/h 96% 0.01in /  0.2mm 0 W/m2
18:38 54 °F /  12.2 °C 52.9 °F /  11.6 °C 29.8in /  1009.1hPa NW 4mph /  6.4km/h 6mph /  9.7km/h 96% 0.01in /  0.2mm 0 W/m2
18:43 54.1 °F /  12.3 °C 53.1 °F /  11.7 °C 29.8in /  1008.8hPa WNW 4mph /  6.4km/h 10mph /  16.1km/h 96% 0.01in /  0.2mm 0 W/m2
18:48 54.3 °F /  12.4 °C 53.2 °F /  11.8 °C 29.8in /  1008.8hPa NW 4mph /  6.4km/h 8mph /  12.9km/h 96% 0.01in /  0.2mm 0 W/m2
18:53 54.5 °F /  12.5 °C 53.4 °F /  11.9 °C 29.8in /  1009.1hPa WNW 6.9mph /  11.1km/h 13mph /  20.9km/h 96% 0.02in /  0.5mm 0 W/m2
18:58 54.9 °F /  12.7 °C 53.8 °F /  12.1 °C 29.8in /  1009.1hPa West 10.1mph /  16.3km/h 11mph /  17.7km/h 96% 0.01in /  0.2mm 0 W/m2
19:03 55 °F /  12.8 °C 54 °F /  12.2 °C 29.8in /  1009.1hPa SW 10.1mph /  16.3km/h 15mph /  24.1km/h 96% 0.01in /  0.2mm 0 W/m2
19:08 55.2 °F /  12.9 °C 54.1 °F /  12.3 °C 29.8in /  1009.1hPa WNW 2mph /  3.2km/h 9mph /  14.5km/h 96% 0.01in /  0.2mm 0 W/m2
19:13 55.6 °F /  13.1 °C 54.5 °F /  12.5 °C 29.8in /  1009.1hPa West 6.9mph /  11.1km/h 15mph /  24.1km/h 96% 0.01in /  0.2mm 0 W/m2
19:18 55.6 °F /  13.1 °C 54.1 °F /  12.3 °C 29.8in /  1009.1hPa WSW 4.9mph /  7.9km/h 8mph /  12.9km/h 95% 0.01in /  0.2mm 0 W/m2
19:23 55.8 °F /  13.2 °C 54.3 °F /  12.4 °C 29.8in /  1009.1hPa WNW 8.1mph /  13km/h 15mph /  24.1km/h 95% 0.01in /  0.2mm 0 W/m2
19:28 55.9 °F /  13.3 °C 54.5 °F /  12.5 °C 29.8in /  1009.1hPa West 6.9mph /  11.1km/h 15mph /  24.1km/h 95% 0.01in /  0.2mm 0 W/m2
19:33 56.1 °F /  13.4 °C 54.5 °F /  12.5 °C 29.8in /  1009.5hPa WSW 8.9mph /  14.3km/h 18mph /  29km/h 94% 0.01in /  0.2mm 0 W/m2
19:38 56.3 °F /  13.5 °C 54.7 °F /  12.6 °C 29.8in /  1009.5hPa West 6.9mph /  11.1km/h 12mph /  19.3km/h 94% 0.01in /  0.2mm 0 W/m2
19:43 56.5 °F /  13.6 °C 54.9 °F /  12.7 °C 29.8in /  1009.5hPa West 18mph /  29km/h 18mph /  29km/h 94% 0.01in /  0.2mm 0 W/m2
19:48 56.5 °F /  13.6 °C 54.9 °F /  12.7 °C 29.8in /  1009.5hPa WNW 13mph /  20.9km/h 13mph /  20.9km/h 94% 0.01in /  0.2mm 0 W/m2
19:53 56.5 °F /  13.6 °C 54.5 °F /  12.5 °C 29.8in /  1009.8hPa West 8.9mph /  14.3km/h 16mph /  25.7km/h 93% 0in /  0.0mm 0 W/m2
19:58 56.7 °F /  13.7 °C 54.7 °F /  12.6 °C 29.8in /  1009.5hPa WNW 10.1mph /  16.3km/h 13mph /  20.9km/h 93% 0in /  0.0mm 0 W/m2
20:03 56.7 °F /  13.7 °C 54.7 °F /  12.6 °C 29.8in /  1009.8hPa WSW 13mph /  20.9km/h 15mph /  24.1km/h 93% 0in /  0.0mm 0 W/m2
20:08 56.5 °F /  13.6 °C 54.5 °F /  12.5 °C 29.8in /  1009.5hPa WNW 4mph /  6.4km/h 9mph /  14.5km/h 93% 0in /  0.0mm 0 W/m2
20:13 56.3 °F /  13.5 °C 54.3 °F /  12.4 °C 29.8in /  1009.8hPa WNW 8.9mph /  14.3km/h 12mph /  19.3km/h 93% 0in /  0.0mm 0 W/m2
20:18 56.1 °F /  13.4 °C 54.5 °F /  12.5 °C 29.8in /  1010.2hPa West 6mph /  9.7km/h 10mph /  16.1km/h 94% 0in /  0.0mm 0 W/m2
20:23 56.1 °F /  13.4 °C 54.5 °F /  12.5 °C 29.8in /  1010.2hPa West 8.1mph /  13km/h 12mph /  19.3km/h 94% 0.01in /  0.2mm 0 W/m2
20:28 56.1 °F /  13.4 °C 54.5 °F /  12.5 °C 29.8in /  1010.2hPa West 11mph /  17.7km/h 17mph /  27.4km/h 94% 0.01in /  0.2mm 0 W/m2
20:33 56.1 °F /  13.4 °C 54.5 °F /  12.5 °C 29.8in /  1010.2hPa WNW 8.1mph /  13km/h 14mph /  22.5km/h 94% 0.01in /  0.2mm 0 W/m2
20:38 56.1 °F /  13.4 °C 54.5 °F /  12.5 °C 29.8in /  1010.2hPa WSW 4.9mph /  7.9km/h 15mph /  24.1km/h 94% 0.01in /  0.2mm 0 W/m2
20:43 56.1 °F /  13.4 °C 54.5 °F /  12.5 °C 29.8in /  1010.2hPa West 12.1mph /  19.5km/h 12mph /  19.3km/h 94% 0.01in /  0.2mm 0 W/m2
20:48 56.3 °F /  13.5 °C 54.3 °F /  12.4 °C 29.8in /  1010.2hPa West 10.1mph /  16.3km/h 20mph /  32.2km/h 93% 0.01in /  0.2mm 0 W/m2
20:53 56.3 °F /  13.5 °C 54.3 °F /  12.4 °C 29.8in /  1010.5hPa WNW 4.9mph /  7.9km/h 14mph /  22.5km/h 93% 0.01in /  0.2mm 0 W/m2
20:58 56.5 °F /  13.6 °C 54.5 °F /  12.5 °C 29.8in /  1010.5hPa West 6mph /  9.7km/h 20mph /  32.2km/h 93% 0.01in /  0.2mm 0 W/m2
21:03 56.5 °F /  13.6 °C 54.5 °F /  12.5 °C 29.8in /  1010.5hPa NW 6mph /  9.7km/h 15mph /  24.1km/h 93% 0.01in /  0.2mm 0 W/m2
21:08 56.5 °F /  13.6 °C 54.5 °F /  12.5 °C 29.9in /  1010.8hPa WNW 4mph /  6.4km/h 20mph /  32.2km/h 93% 0.01in /  0.2mm 0 W/m2
21:13 56.5 °F /  13.6 °C 54.5 °F /  12.5 °C 29.8in /  1010.5hPa SW 8.1mph /  13km/h 16mph /  25.7km/h 93% 0.01in /  0.2mm 0 W/m2
21:18 56.5 °F /  13.6 °C 54.5 °F /  12.5 °C 29.9in /  1010.8hPa West 6mph /  9.7km/h 20mph /  32.2km/h 93% 0.01in /  0.2mm 0 W/m2
21:23 56.1 °F /  13.4 °C 54.1 °F /  12.3 °C 29.9in /  1010.8hPa WSW 4.9mph /  7.9km/h 15mph /  24.1km/h 93% 0in /  0.0mm 0 W/m2
21:28 56.1 °F /  13.4 °C 54.1 °F /  12.3 °C 29.9in /  1010.8hPa WSW 14.1mph /  22.7km/h 20mph /  32.2km/h 93% 0.01in /  0.2mm 0 W/m2
21:33 56.1 °F /  13.4 °C 54.1 °F /  12.3 °C 29.9in /  1010.8hPa WSW 10.1mph /  16.3km/h 14mph /  22.5km/h 93% 0.01in /  0.2mm 0 W/m2
21:38 56.1 °F /  13.4 °C 54.1 °F /  12.3 °C 29.9in /  1011.2hPa NW 8.1mph /  13km/h 16mph /  25.7km/h 93% 0.01in /  0.2mm 0 W/m2
21:43 56.1 °F /  13.4 °C 54.1 °F /  12.3 °C 29.9in /  1011.2hPa WNW 8.1mph /  13km/h 14mph /  22.5km/h 93% 0.01in /  0.2mm 0 W/m2
21:48 56.1 °F /  13.4 °C 54.1 °F /  12.3 °C 29.9in /  1011.5hPa WNW 4.9mph /  7.9km/h 15mph /  24.1km/h 93% 0.01in /  0.2mm 0 W/m2
21:53 56.1 °F /  13.4 °C 54.1 °F /  12.3 °C 29.9in /  1011.5hPa NNW 8.9mph /  14.3km/h 13mph /  20.9km/h 93% 0.01in /  0.2mm 0 W/m2
21:58 56.1 °F /  13.4 °C 54.1 °F /  12.3 °C 29.9in /  1011.5hPa WNW 8.1mph /  13km/h 11mph /  17.7km/h 93% 0.01in /  0.2mm 0 W/m2
22:03 56.1 °F /  13.4 °C 53.8 °F /  12.1 °C 29.9in /  1011.5hPa WNW 8.1mph /  13km/h 12mph /  19.3km/h 92% 0.01in /  0.2mm 0 W/m2
22:08 56.1 °F /  13.4 °C 53.8 °F /  12.1 °C 29.9in /  1011.9hPa West 4mph /  6.4km/h 10mph /  16.1km/h 92% 0.01in /  0.2mm 0 W/m2
22:13 56.1 °F /  13.4 °C 53.8 °F /  12.1 °C 29.9in /  1011.9hPa WSW 13mph /  20.9km/h 14mph /  22.5km/h 92% 0.01in /  0.2mm 0 W/m2
22:18 56.3 °F /  13.5 °C 54 °F /  12.2 °C 29.9in /  1011.9hPa West 8.9mph /  14.3km/h 14mph /  22.5km/h 92% 0.01in /  0.2mm 0 W/m2
22:23 56.3 °F /  13.5 °C 54 °F /  12.2 °C 29.9in /  1012.2hPa WSW 10.1mph /  16.3km/h 13mph /  20.9km/h 92% 0.01in /  0.2mm 0 W/m2
22:28 56.3 °F /  13.5 °C 54 °F /  12.2 °C 29.9in /  1012.2hPa WNW 10.1mph /  16.3km/h 11mph /  17.7km/h 92% 0in /  0.0mm 0 W/m2
22:33 56.3 °F /  13.5 °C 54 °F /  12.2 °C 29.9in /  1012.2hPa NW 8.1mph /  13km/h 12mph /  19.3km/h 92% 0in /  0.0mm 0 W/m2
22:38 56.3 °F /  13.5 °C 53.8 °F /  12.1 °C 29.9in /  1012.2hPa West 6.9mph /  11.1km/h 13mph /  20.9km/h 91% 0in /  0.0mm 0 W/m2
22:43 56.1 °F /  13.4 °C 53.6 °F /  12 °C 29.9in /  1012.2hPa WSW 6mph /  9.7km/h 8mph /  12.9km/h 91% 0in /  0.0mm 0 W/m2
22:48 56.1 °F /  13.4 °C 53.6 °F /  12 °C 29.9in /  1012.5hPa NW 4mph /  6.4km/h 14mph /  22.5km/h 91% 0in /  0.0mm 0 W/m2
22:53 55.9 °F /  13.3 °C 53.4 °F /  11.9 °C 29.9in /  1012.5hPa WNW 8.9mph /  14.3km/h 11mph /  17.7km/h 91% 0in /  0.0mm 0 W/m2
22:58 55.9 °F /  13.3 °C 53.4 °F /  11.9 °C 29.9in /  1012.9hPa West 8.9mph /  14.3km/h 14mph /  22.5km/h 91% 0in /  0.0mm 0 W/m2
23:03 55.9 °F /  13.3 °C 53.4 °F /  11.9 °C 29.9in /  1012.9hPa NW 4.9mph /  7.9km/h 12mph /  19.3km/h 91% 0in /  0.0mm 0 W/m2
23:08 55.9 °F /  13.3 °C 53.4 °F /  11.9 °C 29.9in /  1012.9hPa NW 6mph /  9.7km/h 9mph /  14.5km/h 91% 0in /  0.0mm 0 W/m2
23:13 55.9 °F /  13.3 °C 53.4 °F /  11.9 °C 29.9in /  1012.9hPa WNW 6.9mph /  11.1km/h 9mph /  14.5km/h 91% 0in /  0.0mm 0 W/m2
23:18 55.9 °F /  13.3 °C 53.4 °F /  11.9 °C 29.9in /  1013.2hPa WNW 6.9mph /  11.1km/h 9mph /  14.5km/h 91% 0in /  0.0mm 0 W/m2
23:23 55.9 °F /  13.3 °C 53.4 °F /  11.9 °C 29.9in /  1013.2hPa WNW 0.9mph /  1.4km/h 9mph /  14.5km/h 91% 0in /  0.0mm 0 W/m2
23:28 55.8 °F /  13.2 °C 53.2 °F /  11.8 °C 29.9in /  1013.2hPa WSW 13mph /  20.9km/h 13mph /  20.9km/h 91% 0in /  0.0mm 0 W/m2
23:33 55.8 °F /  13.2 °C 53.4 °F /  11.9 °C 29.9in /  1013.2hPa WNW 2mph /  3.2km/h 12mph /  19.3km/h 92% 0in /  0.0mm 0 W/m2
Juneau County Weather
Compliments of Weather Underground - 4 mb